createdAt,value
2022-12-13T00:00:57.788Z,10.93
2022-12-13T00:03:24.595Z,11.10
2022-12-13T00:05:51.430Z,12.07
2022-12-13T00:08:18.249Z,11.47
2022-12-13T00:10:44.955Z,11.67
2022-12-13T00:13:11.654Z,12.50
2022-12-13T00:15:38.420Z,11.53
2022-12-13T00:18:05.093Z,10.33
2022-12-13T00:20:31.878Z,10.63
2022-12-13T00:22:58.615Z,11.20
2022-12-13T00:25:25.422Z,11.23
2022-12-13T00:27:52.087Z,10.53
2022-12-13T00:30:18.989Z,11.60
2022-12-13T00:32:45.678Z,10.60
2022-12-13T00:35:12.484Z,11.10
2022-12-13T00:37:39.483Z,10.87
2022-12-13T00:40:06.827Z,11.10
2022-12-13T00:42:35.131Z,11.33
2022-12-13T00:45:01.859Z,11.20
2022-12-13T00:47:28.605Z,10.87
2022-12-13T00:49:55.336Z,10.10
2022-12-13T00:52:22.133Z,10.07
2022-12-13T00:54:48.843Z,10.53
2022-12-13T00:57:15.637Z,10.23
2022-12-13T00:59:42.429Z,11.77
2022-12-13T01:02:09.221Z,10.53
2022-12-13T01:04:36.158Z,11.57
2022-12-13T01:07:03.089Z,11.57
2022-12-13T01:09:31.217Z,10.50
2022-12-13T01:12:03.068Z,11.17
2022-12-13T01:14:30.494Z,11.00
2022-12-13T01:16:57.896Z,11.70
2022-12-13T01:19:26.504Z,10.13
2022-12-13T01:22:02.386Z,10.50
2022-12-13T01:24:30.314Z,10.07
2022-12-13T01:26:57.833Z,10.57
2022-12-13T01:29:26.180Z,10.50
2022-12-13T01:31:53.864Z,10.83
2022-12-13T01:34:26.263Z,10.37
2022-12-13T01:36:58.282Z,10.53
2022-12-13T01:39:27.308Z,10.53
2022-12-13T01:41:59.501Z,10.00
2022-12-13T01:44:51.421Z,10.37
2022-12-13T01:47:22.643Z,11.13
2022-12-13T01:49:50.223Z,11.60
2022-12-13T01:52:17.885Z,10.53
2022-12-13T01:54:49.068Z,10.00
2022-12-13T01:57:19.551Z,10.43
2022-12-13T01:59:47.199Z,11.43
2022-12-13T02:02:15.370Z,9.37
2022-12-13T02:05:02.887Z,10.83
2022-12-13T02:07:32.939Z,10.43
2022-12-13T02:10:02.608Z,10.30
2022-12-13T02:12:32.175Z,9.87
2022-12-13T02:15:02.741Z,9.67
2022-12-13T02:17:32.854Z,10.60
2022-12-13T02:20:22.203Z,10.17
2022-12-13T02:23:15.644Z,11.17
2022-12-13T02:25:50.891Z,11.20
2022-12-13T02:28:42.178Z,11.47
2022-12-13T02:31:23.203Z,10.50
2022-12-13T02:34:11.606Z,11.63
2022-12-13T02:37:01.107Z,10.70
2022-12-13T02:39:47.169Z,11.60
2022-12-13T02:42:26.312Z,10.47
2022-12-13T02:45:00.708Z,10.57
2022-12-13T02:47:29.389Z,11.10
2022-12-13T02:49:59.408Z,12.37
2022-12-13T02:52:29.337Z,11.30
2022-12-13T02:54:57.113Z,12.40
2022-12-13T02:57:35.924Z,10.97
2022-12-13T03:00:08.352Z,11.47
2022-12-13T03:02:54.058Z,10.37
2022-12-13T03:06:24.634Z,10.87
2022-12-13T03:09:30.170Z,11.13
2022-12-13T03:12:38.820Z,10.77
2022-12-13T03:15:12.012Z,10.30
2022-12-13T03:17:47.504Z,12.03
2022-12-13T03:20:23.099Z,11.83
2022-12-13T03:22:51.410Z,11.67
2022-12-13T03:25:31.691Z,11.00
2022-12-13T03:28:02.935Z,11.07
2022-12-13T03:30:31.942Z,11.17
2022-12-13T03:32:58.942Z,10.63
2022-12-13T03:35:34.359Z,11.00
2022-12-13T03:38:12.548Z,10.83
2022-12-13T03:40:54.476Z,10.40
2022-12-13T03:43:22.551Z,11.70
2022-12-13T03:45:50.240Z,10.47
2022-12-13T03:48:22.651Z,11.70
2022-12-13T03:50:52.124Z,10.33
2022-12-13T03:53:22.416Z,10.30
2022-12-13T03:56:00.820Z,11.00
2022-12-13T03:58:36.245Z,11.03
2022-12-13T04:01:06.420Z,11.07
2022-12-13T04:03:33.356Z,10.60
2022-12-13T04:06:00.149Z,10.80
2022-12-13T04:08:27.090Z,12.10
2022-12-13T04:10:53.896Z,11.57
2022-12-13T04:13:32.671Z,11.90
2022-12-13T04:16:00.446Z,11.50
2022-12-13T04:18:27.318Z,11.00
2022-12-13T04:20:54.118Z,10.80
2022-12-13T04:23:20.826Z,11.10
2022-12-13T04:25:47.567Z,11.07
2022-12-13T04:28:22.504Z,12.53
2022-12-13T04:30:53.974Z,11.73
2022-12-13T04:33:24.815Z,11.63
2022-12-13T04:35:51.991Z,11.27
2022-12-13T04:38:19.160Z,10.73
2022-12-13T04:40:46.026Z,11.83
2022-12-13T04:43:12.865Z,10.53
2022-12-13T04:45:39.676Z,11.17
2022-12-13T04:48:06.580Z,10.20
2022-12-13T04:50:34.004Z,11.07
2022-12-13T04:53:00.928Z,11.07
2022-12-13T04:55:27.757Z,10.73
2022-12-13T04:57:54.525Z,11.33
2022-12-13T05:00:24.434Z,10.97
2022-12-13T05:02:51.228Z,11.23
2022-12-13T05:05:18.709Z,10.70
2022-12-13T05:07:45.780Z,11.80
2022-12-13T05:10:14.030Z,10.50
2022-12-13T05:13:00.170Z,10.80
2022-12-13T05:15:27.693Z,10.67
2022-12-13T05:17:54.491Z,10.80
2022-12-13T05:20:21.180Z,11.13
2022-12-13T05:22:47.986Z,10.93
2022-12-13T05:25:14.936Z,10.87
2022-12-13T05:27:41.814Z,11.20
2022-12-13T05:30:09.386Z,9.93
2022-12-13T05:32:43.543Z,10.80
2022-12-13T05:35:14.231Z,12.07
2022-12-13T05:37:53.538Z,10.97
2022-12-13T05:40:22.128Z,12.40
2022-12-13T05:42:48.853Z,11.60
2022-12-13T05:45:17.705Z,11.27
2022-12-13T05:47:44.742Z,12.17
2022-12-13T05:50:12.081Z,11.07
2022-12-13T05:52:38.829Z,11.47
2022-12-13T05:55:05.902Z,11.33
2022-12-13T05:57:32.918Z,10.93
2022-12-13T06:00:00.985Z,11.07
2022-12-13T06:02:28.180Z,11.73
2022-12-13T06:04:55.069Z,11.90
2022-12-13T06:07:21.775Z,11.13
2022-12-13T06:09:48.551Z,12.13
2022-12-13T06:12:32.497Z,10.93
2022-12-13T06:15:01.089Z,11.67
2022-12-13T06:17:36.311Z,11.53
2022-12-13T06:20:23.682Z,11.33
2022-12-13T06:22:54.241Z,11.93
2022-12-13T06:25:30.796Z,11.00
2022-12-13T06:28:01.349Z,11.00
2022-12-13T06:30:29.388Z,12.00
2022-12-13T06:32:56.288Z,10.67
2022-12-13T06:35:28.274Z,11.07
2022-12-13T06:37:56.007Z,11.20
2022-12-13T06:40:31.794Z,10.87
2022-12-13T06:42:58.546Z,10.57
2022-12-13T06:45:25.850Z,11.80
2022-12-13T06:47:52.586Z,10.80
2022-12-13T06:50:19.552Z,10.83
2022-12-13T06:52:47.120Z,11.30
2022-12-13T06:55:15.410Z,11.73
2022-12-13T06:57:51.095Z,11.60
2022-12-13T07:00:23.161Z,13.47
2022-12-13T07:02:55.146Z,11.47
2022-12-13T07:05:22.589Z,10.53
2022-12-13T07:07:49.506Z,11.00
2022-12-13T07:10:22.453Z,11.60
2022-12-13T07:12:49.924Z,12.23
2022-12-13T07:15:16.789Z,11.40
2022-12-13T07:17:43.756Z,11.57
2022-12-13T07:20:13.603Z,11.43
2022-12-13T07:22:47.255Z,11.50
2022-12-13T07:25:26.873Z,10.77
2022-12-13T07:28:05.207Z,13.07
2022-12-13T07:30:41.591Z,12.60
2022-12-13T07:33:09.989Z,11.97
2022-12-13T07:35:37.666Z,12.40
2022-12-13T07:38:09.268Z,12.67
2022-12-13T07:40:37.016Z,12.77
2022-12-13T07:43:04.876Z,12.20
2022-12-13T07:45:32.284Z,12.00
2022-12-13T07:48:03.437Z,12.17
2022-12-13T07:50:36.790Z,11.33
2022-12-13T07:53:06.912Z,12.87
2022-12-13T07:55:34.855Z,12.07
2022-12-13T07:58:13.411Z,11.90
2022-12-13T08:00:46.030Z,12.27
2022-12-13T08:03:24.497Z,12.87
2022-12-13T08:06:01.676Z,12.60
2022-12-13T08:08:31.369Z,12.20
2022-12-13T08:11:06.628Z,13.43
2022-12-13T08:13:34.201Z,13.13
2022-12-13T08:16:03.014Z,12.50
2022-12-13T08:18:30.291Z,14.77
2022-12-13T08:21:14.069Z,12.83
2022-12-13T08:23:51.514Z,12.77
2022-12-13T08:26:18.599Z,12.80
2022-12-13T08:28:45.350Z,12.63
2022-12-13T08:31:13.493Z,14.23
2022-12-13T08:33:41.130Z,13.30
2022-12-13T08:36:16.348Z,13.83
2022-12-13T08:38:43.954Z,13.57
2022-12-13T08:41:11.153Z,15.43
2022-12-13T08:43:38.282Z,13.57
2022-12-13T08:46:06.092Z,14.87
2022-12-13T08:48:33.587Z,14.17
2022-12-13T08:51:12.937Z,14.43
2022-12-13T08:53:40.096Z,13.87
2022-12-13T08:56:11.624Z,14.67
2022-12-13T08:58:39.423Z,14.47
2022-12-13T09:01:07.577Z,14.83
2022-12-13T09:03:35.248Z,16.20
2022-12-13T09:06:10.494Z,14.23
2022-12-13T09:08:38.398Z,15.17
2022-12-13T09:11:11.534Z,15.67
2022-12-13T09:13:50.944Z,15.33
2022-12-13T09:16:23.648Z,14.17
2022-12-13T09:18:55.272Z,13.90
2022-12-13T09:21:31.410Z,14.57
2022-12-13T09:24:01.454Z,14.37
2022-12-13T09:26:29.320Z,15.77
2022-12-13T09:29:10.246Z,13.97
2022-12-13T09:31:40.487Z,14.13
2022-12-13T09:34:08.502Z,14.17
2022-12-13T09:36:35.488Z,14.83
2022-12-13T09:39:02.168Z,14.80
2022-12-13T09:41:34.087Z,14.50
2022-12-13T09:44:31.561Z,13.77
2022-12-13T09:47:03.667Z,14.63
2022-12-13T09:49:44.192Z,14.33
2022-12-13T09:52:22.457Z,14.70
2022-12-13T09:54:55.765Z,15.67
2022-12-13T09:57:34.071Z,14.93
2022-12-13T10:00:05.309Z,15.33
2022-12-13T10:02:37.890Z,16.13
2022-12-13T10:05:35.884Z,14.80
2022-12-13T10:08:20.702Z,14.23
2022-12-13T10:10:55.712Z,14.30
2022-12-13T10:13:25.725Z,14.57
2022-12-13T10:16:02.508Z,14.87
2022-12-13T10:18:39.112Z,16.23
2022-12-13T10:21:21.065Z,15.10
2022-12-13T10:26:39.558Z,14.67
2022-12-13T10:29:08.595Z,14.70
2022-12-13T10:31:45.763Z,13.93
2022-12-13T10:34:25.253Z,13.07
2022-12-13T10:36:52.109Z,13.03
2022-12-13T10:39:52.361Z,14.30
2022-12-13T10:42:23.652Z,14.57
2022-12-13T10:45:27.237Z,15.03
2022-12-13T10:47:54.774Z,13.27
2022-12-13T10:50:29.280Z,14.07
2022-12-13T10:52:58.079Z,15.23
2022-12-13T10:55:35.625Z,14.10
2022-12-13T10:58:09.737Z,13.70
2022-12-13T11:00:44.954Z,14.43
2022-12-13T11:03:32.619Z,13.67
2022-12-13T11:06:18.091Z,13.40
2022-12-13T11:08:44.919Z,13.77
2022-12-13T11:11:12.471Z,14.10
2022-12-13T11:13:51.146Z,14.20
2022-12-13T11:16:31.610Z,13.07
2022-12-13T11:19:02.916Z,12.57
2022-12-13T11:21:33.613Z,14.13
2022-12-13T11:24:03.709Z,13.80
2022-12-13T11:26:39.108Z,14.23
2022-12-13T11:29:15.017Z,14.03
2022-12-13T11:31:47.953Z,14.43
2022-12-13T11:34:31.014Z,14.00
2022-12-13T11:37:18.559Z,14.27
2022-12-13T11:40:11.744Z,12.23
2022-12-13T11:42:50.345Z,14.07
2022-12-13T11:45:41.867Z,13.67
2022-12-13T11:48:21.897Z,13.03
2022-12-13T11:50:50.899Z,14.10
2022-12-13T11:53:35.078Z,12.37
2022-12-13T11:56:15.896Z,13.40
2022-12-13T11:59:16.248Z,13.00
2022-12-13T12:01:47.049Z,14.03
2022-12-13T12:04:43.098Z,13.70
2022-12-13T12:07:32.336Z,12.53
2022-12-13T12:10:21.759Z,12.97
2022-12-13T12:12:55.588Z,12.40
2022-12-13T12:15:42.878Z,12.73
2022-12-13T12:18:15.576Z,13.67
2022-12-13T12:21:42.785Z,11.30
2022-12-13T12:24:31.838Z,12.70
2022-12-13T12:27:07.141Z,12.37
2022-12-13T12:30:11.863Z,14.20
2022-12-13T12:32:44.596Z,12.50
2022-12-13T12:35:20.757Z,15.00
2022-12-13T12:38:14.774Z,14.07
2022-12-13T12:43:44.879Z,12.30
2022-12-13T12:46:26.268Z,13.17
2022-12-13T12:49:03.084Z,12.97
2022-12-13T12:51:47.201Z,13.30
2022-12-13T12:54:38.017Z,12.50
2022-12-13T12:57:30.067Z,12.47
2022-12-13T13:00:04.152Z,12.40
2022-12-13T13:02:39.680Z,11.70
2022-12-13T13:05:30.285Z,11.40
2022-12-13T13:08:12.642Z,12.63
2022-12-13T13:10:42.338Z,11.80
2022-12-13T13:13:36.337Z,12.63
2022-12-13T13:16:38.832Z,12.83
2022-12-13T13:19:12.363Z,13.10
2022-12-13T13:21:43.492Z,11.97
2022-12-13T13:24:20.921Z,13.07
2022-12-13T13:27:11.076Z,13.30
2022-12-13T13:29:43.357Z,11.97
2022-12-13T13:32:28.070Z,12.53
2022-12-13T13:35:37.633Z,12.73
2022-12-13T13:38:50.582Z,12.27
2022-12-13T13:41:51.630Z,12.27
2022-12-13T13:44:50.562Z,11.93
2022-12-13T13:47:20.388Z,12.13
2022-12-13T13:50:08.027Z,11.97
2022-12-13T13:52:55.943Z,11.50
2022-12-13T13:55:48.064Z,10.93
2022-12-13T13:58:33.594Z,12.10
2022-12-13T14:01:22.969Z,12.47
2022-12-13T14:03:49.678Z,11.90
2022-12-13T14:06:35.332Z,11.60
2022-12-13T14:09:16.954Z,11.63
2022-12-13T14:12:02.619Z,11.67
2022-12-13T14:15:01.155Z,12.23
2022-12-13T14:18:05.824Z,12.37
2022-12-13T14:20:46.780Z,11.90
2022-12-13T14:23:51.069Z,12.93
2022-12-13T14:26:42.360Z,12.87
2022-12-13T14:29:16.714Z,12.30
2022-12-13T14:31:49.801Z,12.70
2022-12-13T14:34:27.129Z,13.47
2022-12-13T14:37:02.425Z,11.90
2022-12-13T14:39:31.263Z,13.67
2022-12-13T14:42:00.535Z,13.20
2022-12-13T14:44:30.575Z,13.73
2022-12-13T14:47:04.793Z,12.97
2022-12-13T14:49:35.400Z,13.37
2022-12-13T14:52:26.130Z,13.30
2022-12-13T14:54:58.252Z,12.67
2022-12-13T14:57:27.880Z,14.03
2022-12-13T14:59:56.977Z,12.80
2022-12-13T15:02:32.654Z,12.97
2022-12-13T15:05:05.445Z,12.87
2022-12-13T15:07:41.357Z,14.10
2022-12-13T15:10:31.922Z,15.37
2022-12-13T15:12:58.692Z,14.17
2022-12-13T15:15:29.163Z,13.90
2022-12-13T15:18:21.097Z,14.23
2022-12-13T15:20:49.870Z,13.77
2022-12-13T15:23:27.746Z,13.50
2022-12-13T15:26:08.158Z,13.57
2022-12-13T15:28:37.022Z,12.23
2022-12-13T15:31:06.025Z,14.33
2022-12-13T15:33:36.822Z,13.63
2022-12-13T15:36:13.701Z,12.50
2022-12-13T15:38:53.516Z,12.90
2022-12-13T15:41:32.683Z,13.70
2022-12-13T15:44:17.776Z,14.27
2022-12-13T15:46:46.773Z,13.13
2022-12-13T15:49:22.520Z,13.67
2022-12-13T15:52:15.331Z,13.07
2022-12-13T15:54:53.721Z,13.73
2022-12-13T15:57:26.025Z,13.20
2022-12-13T16:00:34.355Z,14.20
2022-12-13T16:03:11.509Z,13.53
2022-12-13T16:05:49.207Z,13.33
2022-12-13T16:08:35.672Z,12.93
2022-12-13T16:11:02.656Z,13.17
2022-12-13T16:13:31.158Z,14.00
2022-12-13T16:16:27.606Z,14.57
2022-12-13T16:18:56.801Z,14.00
2022-12-13T16:21:24.053Z,13.47
2022-12-13T16:23:51.181Z,12.30
2022-12-13T16:26:24.282Z,14.47
2022-12-13T16:28:51.097Z,13.00
2022-12-13T16:31:23.781Z,13.43
2022-12-13T16:33:50.734Z,14.47
2022-12-13T16:36:17.735Z,14.10
2022-12-13T16:38:44.627Z,13.30
2022-12-13T16:41:11.920Z,13.43
2022-12-13T16:43:46.768Z,13.07
2022-12-13T16:47:15.327Z,13.83
2022-12-13T16:49:05.352Z,11.77
2022-12-13T16:51:32.083Z,13.00
2022-12-13T16:53:58.844Z,13.00
2022-12-13T16:56:25.601Z,14.10
2022-12-13T16:58:52.382Z,13.40
2022-12-13T17:01:20.797Z,12.80
2022-12-13T17:03:47.883Z,12.23
2022-12-13T17:06:19.293Z,13.77
2022-12-13T17:08:46.010Z,12.03
2022-12-13T17:11:17.853Z,12.30
2022-12-13T17:13:46.924Z,12.87
2022-12-13T17:16:14.263Z,13.00
2022-12-13T17:18:41.141Z,13.07
2022-12-13T17:21:09.614Z,13.43
2022-12-13T17:23:36.487Z,12.10
2022-12-13T17:26:11.748Z,11.93
2022-12-13T17:28:38.782Z,13.23
2022-12-13T17:31:07.686Z,12.57
2022-12-13T17:33:34.884Z,12.53
2022-12-13T17:36:03.436Z,12.00
2022-12-13T17:38:30.588Z,12.20
2022-12-13T17:40:57.634Z,12.90
2022-12-13T17:43:34.349Z,11.97
2022-12-13T17:46:02.656Z,12.30
2022-12-13T17:48:37.568Z,12.93
2022-12-13T17:51:07.434Z,12.23
2022-12-13T17:53:34.354Z,12.13
2022-12-13T17:56:06.553Z,11.00
2022-12-13T17:58:33.888Z,12.27
2022-12-13T18:01:22.663Z,12.13
2022-12-13T18:03:52.425Z,12.93
2022-12-13T18:06:19.282Z,12.33
2022-12-13T18:08:46.834Z,12.43
2022-12-13T18:14:03.994Z,12.43
2022-12-13T18:16:36.811Z,13.60
2022-12-13T18:19:08.533Z,11.63
2022-12-13T18:21:36.751Z,13.13
2022-12-13T18:24:04.603Z,12.67
2022-12-13T18:26:31.408Z,12.30
2022-12-13T18:28:58.428Z,13.37
2022-12-13T18:31:28.444Z,13.23
2022-12-13T18:33:55.341Z,13.00
2022-12-13T18:36:24.458Z,11.97
2022-12-13T18:38:51.509Z,12.20
2022-12-13T18:41:22.675Z,12.63
2022-12-13T18:44:02.033Z,11.57
2022-12-13T18:46:31.389Z,13.07
2022-12-13T18:48:59.046Z,11.93
2022-12-13T18:51:25.880Z,12.20
2022-12-13T18:53:53.086Z,13.60
2022-12-13T18:56:20.005Z,11.07
2022-12-13T18:58:48.765Z,13.97
2022-12-13T19:01:17.177Z,13.67
2022-12-13T19:03:45.863Z,13.67
2022-12-13T19:06:18.286Z,13.13
2022-12-13T19:08:51.568Z,12.57
2022-12-13T19:11:19.220Z,12.93
2022-12-13T19:13:46.298Z,12.13
2022-12-13T19:16:16.256Z,13.50
2022-12-13T19:18:43.228Z,12.53
2022-12-13T19:21:14.119Z,13.63
2022-12-13T19:23:41.131Z,13.17
2022-12-13T19:26:14.032Z,13.77
2022-12-13T19:28:42.500Z,13.43
2022-12-13T19:31:11.910Z,13.07
2022-12-13T19:33:39.303Z,13.77
2022-12-13T19:36:06.859Z,12.33
2022-12-13T19:38:33.936Z,13.37
2022-12-13T19:41:05.753Z,13.23
2022-12-13T19:43:32.815Z,12.10
2022-12-13T19:46:01.310Z,12.43
2022-12-13T19:48:28.136Z,13.70
2022-12-13T19:51:02.293Z,13.87
2022-12-13T19:53:30.459Z,12.97
2022-12-13T19:55:58.126Z,13.60
2022-12-13T19:58:26.087Z,13.40
2022-12-13T20:00:53.609Z,13.33
2022-12-13T20:03:20.454Z,14.43
2022-12-13T20:05:57.650Z,12.97
2022-12-13T20:08:24.972Z,12.67
2022-12-13T20:10:58.477Z,14.50
2022-12-13T20:13:25.919Z,13.60
2022-12-13T20:15:53.136Z,13.77
2022-12-13T20:18:20.410Z,13.10
2022-12-13T20:21:10.567Z,12.33
2022-12-13T20:23:36.064Z,12.70
2022-12-13T20:26:04.850Z,13.03
2022-12-13T20:28:31.795Z,13.67
2022-12-13T20:31:05.034Z,13.37
2022-12-13T20:33:31.802Z,13.33
2022-12-13T20:36:27.348Z,13.97
2022-12-13T20:38:59.920Z,13.13
2022-12-13T20:41:29.269Z,11.67
2022-12-13T20:43:57.958Z,12.13
2022-12-13T20:46:25.825Z,13.07
2022-12-13T20:48:53.162Z,13.90
2022-12-13T20:51:22.649Z,12.77
2022-12-13T20:53:50.954Z,13.70
2022-12-13T20:56:21.391Z,12.70
2022-12-13T20:58:48.387Z,11.97
2022-12-13T21:01:26.778Z,11.10
2022-12-13T21:04:00.128Z,12.50
2022-12-13T21:06:28.196Z,11.73
2022-12-13T21:08:57.481Z,10.80
2022-12-13T21:11:36.179Z,10.27
2022-12-13T21:14:21.262Z,11.00
2022-12-13T21:16:53.863Z,11.30
2022-12-13T21:19:33.086Z,10.77
2022-12-13T21:22:02.794Z,11.20
2022-12-13T21:24:29.631Z,11.17
2022-12-13T21:26:56.757Z,10.53
2022-12-13T21:29:23.692Z,10.30
2022-12-13T21:31:50.717Z,9.37
2022-12-13T21:34:18.435Z,10.50
2022-12-13T21:36:47.759Z,9.63
2022-12-13T21:39:17.265Z,10.00
2022-12-13T21:41:44.371Z,9.23
2022-12-13T21:44:13.135Z,10.43
2022-12-13T21:49:26.653Z,8.30
2022-12-13T21:51:53.401Z,10.30
2022-12-13T21:54:20.272Z,10.20
2022-12-13T21:57:05.475Z,9.53
2022-12-13T21:59:32.270Z,8.33
2022-12-13T22:02:20.197Z,9.67
2022-12-13T22:04:58.139Z,8.67
2022-12-13T22:07:33.758Z,9.30
2022-12-13T22:10:01.939Z,9.03
2022-12-13T22:12:40.762Z,9.37
2022-12-13T22:15:10.681Z,8.60
2022-12-13T22:17:38.135Z,8.97
2022-12-13T22:20:10.592Z,8.47
2022-12-13T22:22:41.869Z,8.73
2022-12-13T22:25:09.488Z,9.07
2022-12-13T22:27:36.483Z,9.00
2022-12-13T22:30:04.070Z,7.63
2022-12-13T22:32:32.156Z,9.00
2022-12-13T22:34:59.241Z,8.37
2022-12-13T22:37:26.097Z,8.33
2022-12-13T22:39:52.924Z,8.13
2022-12-13T22:42:20.595Z,8.20
2022-12-13T22:44:47.758Z,8.37
2022-12-13T22:47:14.516Z,7.80
2022-12-13T22:49:41.280Z,8.60
2022-12-13T22:52:08.216Z,7.70
2022-12-13T22:54:35.867Z,8.23
2022-12-13T22:57:02.841Z,7.43
2022-12-13T22:59:29.741Z,8.70
2022-12-13T23:02:02.026Z,7.90
2022-12-13T23:04:30.185Z,7.97
2022-12-13T23:06:56.952Z,7.83
2022-12-13T23:09:23.655Z,8.30
2022-12-13T23:12:09.295Z,7.73
2022-12-13T23:14:36.110Z,7.87
2022-12-13T23:17:04.317Z,8.43
2022-12-13T23:19:41.646Z,9.40
2022-12-13T23:22:18.323Z,7.80
2022-12-13T23:24:44.994Z,7.60
2022-12-13T23:27:11.787Z,8.83
2022-12-13T23:29:38.651Z,8.17
2022-12-13T23:32:05.373Z,5.77
2022-12-13T23:34:32.303Z,7.67
2022-12-13T23:36:59.027Z,8.90
2022-12-13T23:39:25.803Z,8.20
2022-12-13T23:41:52.542Z,7.40
2022-12-13T23:44:19.234Z,7.37
2022-12-13T23:46:48.274Z,8.47
2022-12-13T23:49:16.274Z,7.90
2022-12-13T23:51:43.047Z,7.30
2022-12-13T23:54:14.607Z,8.50
2022-12-13T23:56:41.668Z,7.50
2022-12-13T23:59:08.610Z,6.90
